createdAt,value
2022-10-23T00:00:49.225Z,0.00
2022-10-23T00:01:49.143Z,0.00
2022-10-23T00:02:49.158Z,0.00
2022-10-23T00:03:49.122Z,0.00
2022-10-23T00:04:49.131Z,0.00
2022-10-23T00:05:49.117Z,0.00
2022-10-23T00:06:49.106Z,0.00
2022-10-23T00:07:49.073Z,0.00
2022-10-23T00:08:49.065Z,0.00
2022-10-23T00:09:49.062Z,0.00
2022-10-23T00:10:49.058Z,0.00
2022-10-23T00:11:49.022Z,0.00
2022-10-23T00:12:49.014Z,0.00
2022-10-23T00:13:49.051Z,0.00
2022-10-23T00:14:48.998Z,0.00
2022-10-23T00:15:49.064Z,0.00
2022-10-23T00:16:48.976Z,0.00
2022-10-23T00:17:48.961Z,0.00
2022-10-23T00:18:48.948Z,0.00
2022-10-23T00:19:48.976Z,0.00
2022-10-23T00:20:48.931Z,0.00
2022-10-23T00:21:48.943Z,0.00
2022-10-23T00:22:48.907Z,0.00
2022-10-23T00:23:48.901Z,0.00
2022-10-23T00:24:48.896Z,0.00
2022-10-23T00:25:48.876Z,0.00
2022-10-23T00:26:48.871Z,0.00
2022-10-23T00:27:48.850Z,0.00
2022-10-23T00:28:48.852Z,0.00
2022-10-23T00:29:48.853Z,0.00
2022-10-23T00:30:48.821Z,0.00
2022-10-23T00:31:48.820Z,0.00
2022-10-23T00:32:48.791Z,0.00
2022-10-23T00:33:48.784Z,0.00
2022-10-23T00:34:48.799Z,0.00
2022-10-23T00:35:48.756Z,0.00
2022-10-23T00:36:48.762Z,0.00
2022-10-23T00:37:48.737Z,0.00
2022-10-23T00:38:48.735Z,0.00
2022-10-23T00:39:48.713Z,0.00
2022-10-23T00:41:48.700Z,0.00
2022-10-23T00:42:48.677Z,0.00
2022-10-23T00:43:48.671Z,0.00
2022-10-23T00:44:48.664Z,0.00
2022-10-23T00:45:48.652Z,0.00
2022-10-23T00:46:48.650Z,0.00
2022-10-23T00:47:48.623Z,0.00
2022-10-23T00:48:48.614Z,0.00
2022-10-23T00:49:48.603Z,0.00
2022-10-23T00:50:48.593Z,0.00
2022-10-23T00:51:48.598Z,0.00
2022-10-23T00:52:48.573Z,0.00
2022-10-23T00:53:56.706Z,0.00
2022-10-23T00:54:49.545Z,0.00
2022-10-23T00:55:48.543Z,0.00
2022-10-23T00:56:48.528Z,0.00
2022-10-23T00:57:48.525Z,0.00
2022-10-23T00:58:48.552Z,0.00
2022-10-23T00:59:48.491Z,0.00
2022-10-23T01:00:48.483Z,0.00
2022-10-23T01:01:48.642Z,0.00
2022-10-23T01:02:48.487Z,0.00
2022-10-23T01:03:48.455Z,0.00
2022-10-23T01:04:48.431Z,0.00
2022-10-23T01:06:48.460Z,0.00
2022-10-23T01:07:48.394Z,0.00
2022-10-23T01:08:48.401Z,0.00
2022-10-23T01:09:48.399Z,0.00
2022-10-23T01:10:48.380Z,0.00
2022-10-23T01:11:48.357Z,0.00
2022-10-23T01:12:48.354Z,0.00
2022-10-23T01:13:48.326Z,0.00
2022-10-23T01:14:48.370Z,0.00
2022-10-23T01:15:48.310Z,0.00
2022-10-23T01:16:48.320Z,0.00
2022-10-23T01:17:48.475Z,0.00
2022-10-23T01:18:48.287Z,0.00
2022-10-23T01:19:48.358Z,0.00
2022-10-23T01:20:48.276Z,0.00
2022-10-23T01:21:48.255Z,0.00
2022-10-23T01:22:48.253Z,0.00
2022-10-23T01:23:48.258Z,0.00
2022-10-23T01:24:48.205Z,0.00
2022-10-23T01:25:48.204Z,0.00
2022-10-23T01:26:48.188Z,0.00
2022-10-23T01:27:48.173Z,0.00
2022-10-23T01:28:48.169Z,0.00
2022-10-23T01:29:48.177Z,0.00
2022-10-23T01:30:48.165Z,0.00
2022-10-23T01:31:48.143Z,0.00
2022-10-23T01:32:48.652Z,0.00
2022-10-23T01:33:48.110Z,0.00
2022-10-23T01:34:48.100Z,0.00
2022-10-23T01:35:48.100Z,0.00
2022-10-23T01:36:48.097Z,0.00
2022-10-23T01:37:48.078Z,0.00
2022-10-23T01:38:48.054Z,0.00
2022-10-23T01:39:48.051Z,0.00
2022-10-23T01:40:48.031Z,0.00
2022-10-23T01:41:48.019Z,0.00
2022-10-23T01:42:47.999Z,0.00
2022-10-23T01:43:47.993Z,0.00
2022-10-23T01:44:48.005Z,0.00
2022-10-23T01:45:47.975Z,0.00
2022-10-23T01:46:47.974Z,0.00
2022-10-23T01:47:47.968Z,0.00
2022-10-23T01:48:47.952Z,0.00
2022-10-23T01:49:47.947Z,0.00
2022-10-23T01:50:47.934Z,0.00
2022-10-23T01:51:47.903Z,0.00
2022-10-23T01:52:47.896Z,0.00
2022-10-23T01:53:47.910Z,0.00
2022-10-23T01:54:47.873Z,0.00
2022-10-23T01:55:47.882Z,0.00
2022-10-23T01:56:47.867Z,0.00
2022-10-23T01:57:47.842Z,0.00
2022-10-23T01:58:47.835Z,0.00
2022-10-23T01:59:47.832Z,0.00
2022-10-23T02:00:47.866Z,0.00
2022-10-23T02:01:47.885Z,0.00
2022-10-23T02:02:47.790Z,0.00
2022-10-23T02:03:47.830Z,0.00
2022-10-23T02:04:47.770Z,0.00
2022-10-23T02:05:47.760Z,0.00
2022-10-23T02:06:47.768Z,0.00
2022-10-23T02:07:47.733Z,0.00
2022-10-23T02:08:47.725Z,0.00
2022-10-23T02:09:47.707Z,0.00
2022-10-23T02:10:47.696Z,0.00
2022-10-23T02:11:47.715Z,0.00
2022-10-23T02:12:47.678Z,0.00
2022-10-23T02:13:47.671Z,0.00
2022-10-23T02:14:47.657Z,0.00
2022-10-23T02:15:47.645Z,0.00
2022-10-23T02:16:47.645Z,0.00
2022-10-23T02:17:47.617Z,0.00
2022-10-23T02:18:47.620Z,0.00
2022-10-23T02:19:47.605Z,0.00
2022-10-23T02:20:47.586Z,0.00
2022-10-23T02:21:47.590Z,0.00
2022-10-23T02:22:47.564Z,0.00
2022-10-23T02:23:48.813Z,0.00
2022-10-23T02:24:47.554Z,0.00
2022-10-23T02:25:47.531Z,0.00
2022-10-23T02:26:47.525Z,0.00
2022-10-23T02:27:47.513Z,0.00
2022-10-23T02:28:47.497Z,0.00
2022-10-23T02:29:47.505Z,0.00
2022-10-23T02:30:47.471Z,0.00
2022-10-23T02:31:47.463Z,0.00
2022-10-23T02:32:47.446Z,0.00
2022-10-23T02:33:47.439Z,0.00
2022-10-23T02:34:47.448Z,0.00
2022-10-23T02:35:47.414Z,0.00
2022-10-23T02:36:47.401Z,0.00
2022-10-23T02:37:47.388Z,0.00
2022-10-23T02:38:47.389Z,0.00
2022-10-23T02:39:47.376Z,0.00
2022-10-23T02:40:47.383Z,0.00
2022-10-23T02:41:47.368Z,0.00
2022-10-23T02:42:47.345Z,0.00
2022-10-23T02:43:47.330Z,0.00
2022-10-23T02:44:47.315Z,0.00
2022-10-23T02:45:47.327Z,0.00
2022-10-23T02:46:47.289Z,0.00
2022-10-23T02:47:47.282Z,0.00
2022-10-23T02:48:47.268Z,0.00
2022-10-23T02:49:47.254Z,0.00
2022-10-23T02:50:47.244Z,0.00
2022-10-23T02:51:47.236Z,0.00
2022-10-23T02:52:47.220Z,0.00
2022-10-23T02:53:47.291Z,0.00
2022-10-23T02:54:47.210Z,0.00
2022-10-23T02:55:47.193Z,0.00
2022-10-23T02:56:47.197Z,0.00
2022-10-23T02:57:47.177Z,0.00
2022-10-23T02:58:47.166Z,0.00
2022-10-23T02:59:47.151Z,0.00
2022-10-23T03:00:47.149Z,0.00
2022-10-23T03:01:47.242Z,0.00
2022-10-23T03:02:47.118Z,0.00
2022-10-23T03:03:47.105Z,0.00
2022-10-23T03:04:47.092Z,0.00
2022-10-23T03:05:47.078Z,0.00
2022-10-23T03:06:47.066Z,0.00
2022-10-23T03:07:47.065Z,0.00
2022-10-23T03:08:47.096Z,0.00
2022-10-23T03:09:47.054Z,0.00
2022-10-23T03:11:47.024Z,0.00
2022-10-23T03:12:47.008Z,0.00
2022-10-23T03:13:47.004Z,0.00
2022-10-23T03:14:47.008Z,0.00
2022-10-23T03:15:46.963Z,0.00
2022-10-23T03:16:46.960Z,0.00
2022-10-23T03:17:46.950Z,0.00
2022-10-23T03:18:46.933Z,0.00
2022-10-23T03:19:46.924Z,0.00
2022-10-23T03:20:46.937Z,0.00
2022-10-23T03:21:46.901Z,0.00
2022-10-23T03:22:46.891Z,0.00
2022-10-23T03:23:46.873Z,0.00
2022-10-23T03:24:46.869Z,0.00
2022-10-23T03:25:46.853Z,0.00
2022-10-23T03:26:46.855Z,0.00
2022-10-23T03:27:46.843Z,0.00
2022-10-23T03:28:46.823Z,0.00
2022-10-23T03:29:46.830Z,0.00
2022-10-23T03:30:46.816Z,0.00
2022-10-23T03:31:46.788Z,0.00
2022-10-23T03:32:46.787Z,0.00
2022-10-23T03:33:46.762Z,0.00
2022-10-23T03:34:46.760Z,0.00
2022-10-23T03:36:46.745Z,0.00
2022-10-23T03:37:46.751Z,0.00
2022-10-23T03:38:46.723Z,0.00
2022-10-23T03:39:46.725Z,0.00
2022-10-23T03:40:46.695Z,0.00
2022-10-23T03:41:46.679Z,0.00
2022-10-23T03:42:46.687Z,0.00
2022-10-23T03:43:46.659Z,0.00
2022-10-23T03:44:46.652Z,0.00
2022-10-23T03:45:46.638Z,0.00
2022-10-23T03:46:46.621Z,0.00
2022-10-23T03:47:46.615Z,0.00
2022-10-23T03:48:46.607Z,0.00
2022-10-23T03:49:46.589Z,0.00
2022-10-23T03:50:46.599Z,0.00
2022-10-23T03:51:46.567Z,0.00
2022-10-23T03:52:46.644Z,0.00
2022-10-23T03:53:46.545Z,0.00
2022-10-23T03:54:46.610Z,0.00
2022-10-23T03:55:46.537Z,0.00
2022-10-23T03:56:46.533Z,0.00
2022-10-23T03:57:46.498Z,0.00
2022-10-23T03:58:46.492Z,0.00
2022-10-23T03:59:46.483Z,0.00
2022-10-23T04:00:46.470Z,0.00
2022-10-23T04:01:46.594Z,0.00
2022-10-23T04:02:46.714Z,0.00
2022-10-23T04:03:46.537Z,0.00
2022-10-23T04:04:46.501Z,0.00
2022-10-23T04:05:46.415Z,0.00
2022-10-23T04:06:46.397Z,0.00
2022-10-23T04:07:46.399Z,0.00
2022-10-23T04:08:46.377Z,0.00
2022-10-23T04:09:46.446Z,0.00
2022-10-23T04:10:46.355Z,0.00
2022-10-23T04:11:46.354Z,0.00
2022-10-23T04:12:46.334Z,0.00
2022-10-23T04:13:46.336Z,0.00
2022-10-23T04:14:46.329Z,0.00
2022-10-23T04:15:46.331Z,0.00
2022-10-23T04:16:46.290Z,0.00
2022-10-23T04:17:46.278Z,0.00
2022-10-23T04:18:46.257Z,0.00
2022-10-23T04:19:46.249Z,0.00
2022-10-23T04:20:46.267Z,0.00
2022-10-23T04:21:46.226Z,0.00
2022-10-23T04:22:46.523Z,0.00
2022-10-23T04:23:46.205Z,0.00
2022-10-23T04:24:46.226Z,0.00
2022-10-23T04:26:46.186Z,0.00
2022-10-23T04:27:46.771Z,0.00
2022-10-23T04:28:46.152Z,0.00
2022-10-23T04:29:46.172Z,0.00
2022-10-23T04:30:46.159Z,0.00
2022-10-23T04:31:46.124Z,0.00
2022-10-23T04:32:46.109Z,0.00
2022-10-23T04:33:46.096Z,0.00
2022-10-23T04:34:46.086Z,0.00
2022-10-23T04:35:46.078Z,0.00
2022-10-23T04:36:46.079Z,0.00
2022-10-23T04:37:46.074Z,0.00
2022-10-23T04:38:46.048Z,0.00
2022-10-23T04:39:46.044Z,0.00
2022-10-23T04:40:46.027Z,0.00
2022-10-23T04:41:46.042Z,0.00
2022-10-23T04:42:46.142Z,0.00
2022-10-23T04:43:46.015Z,0.00
2022-10-23T04:44:45.995Z,0.00
2022-10-23T04:45:46.004Z,0.00
2022-10-23T04:46:45.986Z,0.00
2022-10-23T04:47:45.949Z,0.00
2022-10-23T04:48:45.948Z,0.00
2022-10-23T04:49:45.921Z,0.00
2022-10-23T04:51:45.900Z,0.00
2022-10-23T04:52:45.959Z,0.00
2022-10-23T04:53:45.871Z,0.00
2022-10-23T04:54:45.918Z,0.00
2022-10-23T04:55:45.853Z,0.00
2022-10-23T04:56:45.839Z,0.00
2022-10-23T04:57:45.849Z,0.00
2022-10-23T04:58:45.811Z,0.00
2022-10-23T04:59:45.808Z,0.00
2022-10-23T05:00:45.854Z,0.00
2022-10-23T05:01:45.862Z,0.00
2022-10-23T05:02:45.831Z,0.00
2022-10-23T05:03:45.902Z,0.00
2022-10-23T05:04:45.808Z,0.00
2022-10-23T05:05:45.741Z,0.00
2022-10-23T05:06:45.727Z,0.00
2022-10-23T05:07:46.054Z,0.00
2022-10-23T05:08:45.716Z,0.00
2022-10-23T05:09:45.692Z,0.00
2022-10-23T05:10:45.756Z,0.00
2022-10-23T05:11:45.679Z,0.00
2022-10-23T05:12:45.665Z,0.00
2022-10-23T05:13:45.666Z,0.00
2022-10-23T05:14:45.645Z,4.00
2022-10-23T05:15:45.634Z,4.00
2022-10-23T05:16:45.611Z,0.00
2022-10-23T05:17:45.866Z,0.00
2022-10-23T05:18:45.597Z,4.00
2022-10-23T05:19:45.599Z,0.00
2022-10-23T05:20:45.646Z,4.00
2022-10-23T05:21:45.584Z,4.00
2022-10-23T05:22:45.550Z,8.00
2022-10-23T05:23:45.609Z,8.00
2022-10-23T05:24:48.252Z,8.00
2022-10-23T05:25:45.549Z,8.00
2022-10-23T05:26:45.501Z,12.00
2022-10-23T05:27:45.796Z,12.00
2022-10-23T05:28:45.484Z,16.00
2022-10-23T05:29:45.470Z,16.00
2022-10-23T05:30:45.497Z,16.00
2022-10-23T05:31:45.461Z,20.00
2022-10-23T05:32:45.790Z,24.00
2022-10-23T05:33:45.434Z,28.00
2022-10-23T05:34:45.413Z,32.00
2022-10-23T05:35:45.405Z,36.00
2022-10-23T05:36:45.400Z,40.00
2022-10-23T05:37:45.384Z,44.00
2022-10-23T05:38:45.394Z,52.00
2022-10-23T05:39:45.369Z,60.00
2022-10-23T05:40:45.360Z,68.00
2022-10-23T05:41:45.345Z,80.00
2022-10-23T05:42:45.478Z,88.00
2022-10-23T05:43:45.324Z,92.00
2022-10-23T05:44:45.306Z,96.00
2022-10-23T05:45:45.296Z,96.00
2022-10-23T05:46:45.284Z,108.00
2022-10-23T05:47:45.287Z,120.00
2022-10-23T05:48:45.264Z,128.00
2022-10-23T05:49:45.253Z,140.00
2022-10-23T05:50:45.237Z,152.00
2022-10-23T05:51:45.241Z,164.00
2022-10-23T05:52:45.454Z,184.00
2022-10-23T05:53:45.218Z,200.00
2022-10-23T05:54:45.192Z,220.00
2022-10-23T05:55:45.191Z,236.00
2022-10-23T05:56:45.175Z,260.00
2022-10-23T05:57:45.589Z,280.00
2022-10-23T05:58:45.167Z,300.00
2022-10-23T05:59:45.143Z,320.00
2022-10-23T06:00:45.125Z,344.00
2022-10-23T06:01:45.219Z,372.00
2022-10-23T06:02:45.104Z,396.00
2022-10-23T06:03:45.113Z,420.00
2022-10-23T06:04:45.093Z,428.00
2022-10-23T06:05:45.081Z,444.00
2022-10-23T06:06:45.061Z,472.00
2022-10-23T06:07:45.163Z,500.00
2022-10-23T06:08:45.036Z,532.00
2022-10-23T06:09:45.343Z,568.00
2022-10-23T06:10:45.018Z,600.00
2022-10-23T06:11:45.006Z,628.00
2022-10-23T06:12:44.994Z,648.00
2022-10-23T06:13:45.027Z,676.00
2022-10-23T06:14:44.974Z,708.00
2022-10-23T06:15:44.972Z,732.00
2022-10-23T06:16:44.948Z,760.00
2022-10-23T06:17:45.427Z,784.00
2022-10-23T06:18:44.937Z,812.00
2022-10-23T06:19:44.941Z,840.00
2022-10-23T06:20:44.907Z,868.00
2022-10-23T06:21:44.902Z,916.00
2022-10-23T06:22:45.186Z,1000.00
2022-10-23T06:23:44.873Z,1164.00
2022-10-23T06:24:44.870Z,1384.00
2022-10-23T06:25:44.857Z,1312.00
2022-10-23T06:26:44.845Z,1260.00
2022-10-23T06:27:44.857Z,1308.00
2022-10-23T06:28:44.911Z,1276.00
2022-10-23T06:29:44.843Z,1232.00
2022-10-23T06:30:44.822Z,1256.00
2022-10-23T06:31:44.793Z,1420.00
2022-10-23T06:32:45.359Z,1552.00
2022-10-23T06:33:44.783Z,1604.00
2022-10-23T06:34:44.761Z,1688.00
2022-10-23T06:35:44.745Z,1772.00
2022-10-23T06:36:44.738Z,1904.00
2022-10-23T06:37:44.717Z,1992.00
2022-10-23T06:38:44.706Z,2008.00
2022-10-23T06:39:44.705Z,2204.00
2022-10-23T06:40:44.689Z,2536.00
2022-10-23T06:41:44.677Z,2652.00
2022-10-23T06:42:44.999Z,2828.00
2022-10-23T06:43:44.660Z,2956.00
2022-10-23T06:44:44.647Z,3116.00
2022-10-23T06:45:44.645Z,3396.00
2022-10-23T06:46:44.618Z,2976.00
2022-10-23T06:47:44.926Z,3392.00
2022-10-23T06:48:44.590Z,3280.00
2022-10-23T06:49:44.584Z,3152.00
2022-10-23T06:50:44.571Z,2904.00
2022-10-23T06:51:44.577Z,3280.00
2022-10-23T06:52:47.372Z,3512.00
2022-10-23T06:53:44.546Z,2604.00
2022-10-23T06:54:44.534Z,2268.00
2022-10-23T06:55:44.523Z,2344.00
2022-10-23T06:56:44.530Z,2608.00
2022-10-23T06:57:44.831Z,2784.00
2022-10-23T06:58:44.481Z,2900.00
2022-10-23T06:59:44.527Z,2764.00
2022-10-23T07:00:44.575Z,2776.00
2022-10-23T07:01:44.678Z,2736.00
2022-10-23T07:02:44.660Z,2752.00
2022-10-23T07:03:44.431Z,2868.00
2022-10-23T07:04:44.414Z,2976.00
2022-10-23T07:05:44.413Z,3016.00
2022-10-23T07:06:44.396Z,3016.00
2022-10-23T07:07:44.401Z,3412.00
2022-10-23T07:08:44.367Z,3532.00
2022-10-23T07:09:44.362Z,4180.00
2022-10-23T07:10:44.355Z,3516.00
2022-10-23T07:11:44.337Z,3364.00
2022-10-23T07:12:44.623Z,3652.00
2022-10-23T07:13:44.366Z,4280.00
2022-10-23T07:14:44.302Z,4288.00
2022-10-23T07:15:44.303Z,4364.00
2022-10-23T07:16:44.284Z,4880.00
2022-10-23T07:17:44.284Z,5156.00
2022-10-23T07:18:44.278Z,5664.00
2022-10-23T07:19:44.262Z,7116.00
2022-10-23T07:20:44.236Z,8112.00
2022-10-23T07:21:44.247Z,7480.00
2022-10-23T07:22:44.474Z,7996.00
2022-10-23T07:23:44.204Z,6980.00
2022-10-23T07:24:44.206Z,7784.00
2022-10-23T07:25:44.190Z,7528.00
2022-10-23T07:26:44.236Z,7072.00
2022-10-23T07:27:44.398Z,6812.00
2022-10-23T07:28:44.145Z,6840.00
2022-10-23T07:29:44.158Z,6460.00
2022-10-23T07:30:44.127Z,7104.00
2022-10-23T07:31:44.126Z,6816.00
2022-10-23T07:32:44.099Z,7072.00
2022-10-23T07:33:44.090Z,6816.00
2022-10-23T07:34:44.074Z,6688.00
2022-10-23T07:35:44.075Z,6300.00
2022-10-23T07:36:44.080Z,6224.00
2022-10-23T07:37:44.466Z,6104.00
2022-10-23T07:38:44.070Z,5932.00
2022-10-23T07:39:44.032Z,5904.00
2022-10-23T07:40:44.022Z,6544.00
2022-10-23T07:41:44.026Z,6724.00
2022-10-23T07:42:43.992Z,6696.00
2022-10-23T07:43:43.992Z,6944.00
2022-10-23T07:44:43.976Z,7524.00
2022-10-23T07:45:43.961Z,7428.00
2022-10-23T07:46:43.943Z,7648.00
2022-10-23T07:47:44.289Z,7576.00
2022-10-23T07:48:43.929Z,7420.00
2022-10-23T07:49:43.911Z,7896.00
2022-10-23T07:50:43.904Z,8824.00
2022-10-23T07:51:48.824Z,9940.00
2022-10-23T07:52:45.247Z,10708.00
2022-10-23T07:53:43.889Z,11176.00
2022-10-23T07:54:43.860Z,11284.00
2022-10-23T07:55:43.853Z,11384.00
2022-10-23T07:56:43.871Z,11348.00
2022-10-23T07:57:43.854Z,11628.00
2022-10-23T07:58:43.830Z,11220.00
2022-10-23T07:59:43.804Z,11940.00
2022-10-23T08:00:43.806Z,12004.00
2022-10-23T08:01:43.878Z,12044.00
2022-10-23T08:02:44.108Z,11400.00
2022-10-23T08:03:43.770Z,11752.00
2022-10-23T08:04:43.746Z,11560.00
2022-10-23T08:05:43.753Z,11336.00
2022-10-23T08:06:43.751Z,11280.00
2022-10-23T08:07:43.712Z,11968.00
2022-10-23T08:09:43.698Z,12200.00
2022-10-23T08:10:43.680Z,13724.00
2022-10-23T08:11:43.714Z,14400.00
2022-10-23T08:12:43.916Z,15264.00
2022-10-23T08:13:43.645Z,15200.00
2022-10-23T08:14:43.859Z,15552.00
2022-10-23T08:15:43.630Z,15936.00
2022-10-23T08:16:43.624Z,16576.00
2022-10-23T08:17:43.942Z,17600.00
2022-10-23T08:18:43.676Z,17760.00
2022-10-23T08:19:43.582Z,17696.00
2022-10-23T08:20:43.590Z,18400.00
2022-10-23T08:21:43.571Z,15968.00
2022-10-23T08:22:43.550Z,17184.00
2022-10-23T08:23:43.584Z,18432.00
2022-10-23T08:24:43.538Z,16864.00
2022-10-23T08:25:43.529Z,18016.00
2022-10-23T08:26:43.501Z,16928.00
2022-10-23T08:27:43.623Z,18144.00
2022-10-23T08:28:43.494Z,16288.00
2022-10-23T08:29:43.470Z,17504.00
2022-10-23T08:30:43.481Z,17600.00
2022-10-23T08:31:43.452Z,16320.00
2022-10-23T08:32:43.438Z,16128.00
2022-10-23T08:33:43.479Z,13404.00
2022-10-23T08:34:43.417Z,12068.00
2022-10-23T08:35:43.407Z,11224.00
2022-10-23T08:36:43.410Z,10660.00
2022-10-23T08:37:43.573Z,10816.00
2022-10-23T08:38:43.525Z,10580.00
2022-10-23T08:39:43.378Z,9768.00
2022-10-23T08:40:43.412Z,10144.00
2022-10-23T08:41:43.338Z,10020.00
2022-10-23T08:42:43.562Z,9816.00
2022-10-23T08:43:43.358Z,9500.00
2022-10-23T08:44:43.307Z,9220.00
2022-10-23T08:45:43.296Z,9800.00
2022-10-23T08:46:43.313Z,9316.00
2022-10-23T08:47:43.275Z,9796.00
2022-10-23T08:48:43.261Z,9860.00
2022-10-23T08:49:43.248Z,10024.00
2022-10-23T08:50:43.246Z,10116.00
2022-10-23T08:51:43.263Z,10024.00
2022-10-23T08:52:43.393Z,10260.00
2022-10-23T08:53:43.218Z,10440.00
2022-10-23T08:54:43.195Z,10700.00
2022-10-23T08:55:43.175Z,10668.00
2022-10-23T08:56:43.169Z,10672.00
2022-10-23T08:57:43.748Z,10424.00
2022-10-23T08:58:43.256Z,10828.00
2022-10-23T08:59:43.389Z,11196.00
2022-10-23T09:00:43.210Z,11436.00
2022-10-23T09:01:43.252Z,11936.00
2022-10-23T09:02:43.335Z,12128.00
2022-10-23T09:03:43.085Z,14552.00
2022-10-23T09:04:43.085Z,17408.00
2022-10-23T09:05:43.069Z,17024.00
2022-10-23T09:06:43.069Z,17856.00
2022-10-23T09:07:43.256Z,16576.00
2022-10-23T09:08:43.031Z,19584.00
2022-10-23T09:09:43.034Z,20544.00
2022-10-23T09:10:43.025Z,21216.00
2022-10-23T09:11:42.996Z,22240.00
2022-10-23T09:12:42.995Z,20896.00
2022-10-23T09:13:42.987Z,22592.00
2022-10-23T09:14:42.962Z,26240.00
2022-10-23T09:15:42.972Z,24416.00
2022-10-23T09:16:42.967Z,23136.00
2022-10-23T09:17:43.121Z,22432.00
2022-10-23T09:18:42.930Z,21152.00
2022-10-23T09:19:42.924Z,25632.00
2022-10-23T09:20:42.926Z,22176.00
2022-10-23T09:21:42.892Z,19840.00
2022-10-23T09:22:42.883Z,18528.00
2022-10-23T09:23:42.885Z,12560.00
2022-10-23T09:24:42.861Z,11396.00
2022-10-23T09:25:42.862Z,10968.00
2022-10-23T09:26:42.844Z,10928.00
2022-10-23T09:27:43.023Z,10756.00
2022-10-23T09:28:42.820Z,10444.00
2022-10-23T09:29:42.812Z,9700.00
2022-10-23T09:30:42.795Z,9372.00
2022-10-23T09:31:42.901Z,8804.00
2022-10-23T09:32:42.811Z,9064.00
2022-10-23T09:33:42.766Z,9316.00
2022-10-23T09:34:42.752Z,9124.00
2022-10-23T09:35:42.759Z,8684.00
2022-10-23T09:36:42.736Z,8076.00
2022-10-23T09:37:43.040Z,7760.00
2022-10-23T09:38:42.707Z,8524.00
2022-10-23T09:39:42.695Z,8516.00
2022-10-23T09:40:42.689Z,8800.00
2022-10-23T09:41:42.685Z,9060.00
2022-10-23T09:42:42.694Z,9688.00
2022-10-23T09:43:42.682Z,13508.00
2022-10-23T09:44:42.634Z,19360.00
2022-10-23T09:45:42.632Z,19200.00
2022-10-23T09:46:42.669Z,10540.00
2022-10-23T09:47:42.866Z,8288.00
2022-10-23T09:48:42.656Z,7292.00
2022-10-23T09:49:42.615Z,6684.00
2022-10-23T09:50:42.589Z,6400.00
2022-10-23T09:51:42.558Z,5936.00
2022-10-23T09:52:42.548Z,5956.00
2022-10-23T09:53:42.547Z,5868.00
2022-10-23T09:54:42.528Z,5748.00
2022-10-23T09:55:42.522Z,5728.00
2022-10-23T09:56:42.586Z,5636.00
2022-10-23T09:57:42.732Z,5796.00
2022-10-23T09:58:42.501Z,5760.00
2022-10-23T09:59:42.479Z,6000.00
2022-10-23T10:00:42.495Z,6088.00
2022-10-23T10:01:42.582Z,6092.00
2022-10-23T10:02:43.388Z,6024.00
2022-10-23T10:03:42.431Z,6076.00
2022-10-23T10:04:42.912Z,6004.00
2022-10-23T10:05:42.424Z,5956.00
2022-10-23T10:07:42.650Z,6352.00
2022-10-23T10:08:42.368Z,6240.00
2022-10-23T10:09:42.353Z,6336.00
2022-10-23T10:10:42.358Z,6444.00
2022-10-23T10:11:42.364Z,6368.00
2022-10-23T10:12:42.338Z,6556.00
2022-10-23T10:13:42.309Z,6676.00
2022-10-23T10:14:42.304Z,6612.00
2022-10-23T10:15:42.323Z,6808.00
2022-10-23T10:16:42.289Z,6904.00
2022-10-23T10:17:42.717Z,6952.00
2022-10-23T10:18:42.264Z,7024.00
2022-10-23T10:19:42.257Z,6896.00
2022-10-23T10:20:42.255Z,6724.00
2022-10-23T10:21:42.225Z,6956.00
2022-10-23T10:22:42.221Z,6836.00
2022-10-23T10:23:42.212Z,7116.00
2022-10-23T10:24:42.192Z,7116.00
2022-10-23T10:25:42.205Z,7144.00
2022-10-23T10:26:42.179Z,7264.00
2022-10-23T10:27:42.541Z,7296.00
2022-10-23T10:28:42.153Z,7524.00
2022-10-23T10:29:42.141Z,7528.00
2022-10-23T10:30:42.126Z,7524.00
2022-10-23T10:31:42.117Z,8160.00
2022-10-23T10:32:42.118Z,8396.00
2022-10-23T10:33:42.100Z,8596.00
2022-10-23T10:34:42.084Z,8836.00
2022-10-23T10:35:42.077Z,9016.00
2022-10-23T10:36:42.080Z,9632.00
2022-10-23T10:37:43.847Z,10300.00
2022-10-23T10:38:42.062Z,11044.00
2022-10-23T10:39:42.071Z,12424.00
2022-10-23T10:40:42.017Z,21344.00
2022-10-23T10:41:42.032Z,41120.00
2022-10-23T10:42:42.008Z,45632.00
2022-10-23T10:43:41.985Z,41984.00
2022-10-23T10:44:41.992Z,39424.00
2022-10-23T10:45:41.963Z,38752.00
2022-10-23T10:46:41.969Z,38816.00
2022-10-23T10:47:42.155Z,37920.00
2022-10-23T10:48:41.923Z,42176.00
2022-10-23T10:49:41.909Z,42880.00
2022-10-23T10:50:41.916Z,43328.00
2022-10-23T10:51:41.887Z,42208.00
2022-10-23T10:52:45.438Z,40928.00
2022-10-23T10:53:42.872Z,41312.00
2022-10-23T10:54:41.860Z,38240.00
2022-10-23T10:55:41.856Z,36544.00
2022-10-23T10:56:41.841Z,36192.00
2022-10-23T10:57:42.051Z,35680.00
2022-10-23T10:58:41.823Z,34848.00
2022-10-23T10:59:41.804Z,32640.00
2022-10-23T11:00:41.843Z,29888.00
2022-10-23T11:01:41.893Z,23008.00
2022-10-23T11:02:41.779Z,14072.00
2022-10-23T11:03:41.762Z,11360.00
2022-10-23T11:04:41.756Z,12396.00
2022-10-23T11:05:41.734Z,15808.00
2022-10-23T11:06:41.741Z,16864.00
2022-10-23T11:07:41.917Z,16672.00
2022-10-23T11:08:56.267Z,14664.00
2022-10-23T11:09:42.685Z,13980.00
2022-10-23T11:10:41.677Z,14224.00
2022-10-23T11:11:41.671Z,13032.00
2022-10-23T11:12:41.656Z,13172.00
2022-10-23T11:13:41.651Z,13180.00
2022-10-23T11:14:41.640Z,15636.00
2022-10-23T11:15:41.665Z,18528.00
2022-10-23T11:16:41.623Z,23072.00
2022-10-23T11:17:42.076Z,24000.00
2022-10-23T11:18:41.600Z,24224.00
2022-10-23T11:19:41.583Z,26688.00
2022-10-23T11:20:41.570Z,26432.00
2022-10-23T11:21:41.557Z,23008.00
2022-10-23T11:22:41.867Z,20736.00
2022-10-23T11:23:41.538Z,17376.00
2022-10-23T11:24:43.167Z,19296.00
2022-10-23T11:25:41.520Z,16480.00
2022-10-23T11:26:41.518Z,18976.00
2022-10-23T11:27:41.853Z,24032.00
2022-10-23T11:28:41.495Z,22016.00
2022-10-23T11:29:41.494Z,19616.00
2022-10-23T11:30:41.471Z,25536.00
2022-10-23T11:31:41.459Z,27712.00
2022-10-23T11:32:41.446Z,30624.00
2022-10-23T11:33:44.024Z,32064.00
2022-10-23T11:34:41.428Z,25888.00
2022-10-23T11:35:41.430Z,20000.00
2022-10-23T11:36:41.400Z,20576.00
2022-10-23T11:37:41.586Z,25024.00
2022-10-23T11:38:41.380Z,25248.00
2022-10-23T11:39:41.389Z,24352.00
2022-10-23T11:40:41.405Z,18656.00
2022-10-23T11:41:41.346Z,15808.00
2022-10-23T11:42:41.718Z,16896.00
2022-10-23T11:43:41.342Z,19808.00
2022-10-23T11:44:41.314Z,21440.00
2022-10-23T11:45:41.331Z,20928.00
2022-10-23T11:46:41.311Z,24160.00
2022-10-23T11:47:41.286Z,24192.00
2022-10-23T11:48:41.264Z,23776.00
2022-10-23T11:49:41.301Z,23680.00
2022-10-23T11:50:41.243Z,20896.00
2022-10-23T11:51:41.242Z,14680.00
2022-10-23T11:52:50.492Z,12964.00
2022-10-23T11:53:42.214Z,11520.00
2022-10-23T11:54:41.207Z,10220.00
2022-10-23T11:55:41.193Z,10520.00
2022-10-23T11:56:41.192Z,9112.00
2022-10-23T11:57:41.169Z,9708.00
2022-10-23T11:58:41.172Z,9032.00
2022-10-23T11:59:41.146Z,8588.00
2022-10-23T12:00:41.135Z,7864.00
2022-10-23T12:01:41.174Z,7512.00
2022-10-23T12:02:41.567Z,7244.00
2022-10-23T12:03:41.100Z,7020.00
2022-10-23T12:04:41.088Z,6904.00
2022-10-23T12:05:41.075Z,6800.00
2022-10-23T12:06:41.068Z,6624.00
2022-10-23T12:07:41.130Z,6552.00
2022-10-23T12:08:41.050Z,6380.00
2022-10-23T12:09:41.061Z,6156.00
2022-10-23T12:10:41.021Z,6000.00
2022-10-23T12:11:41.009Z,5816.00
2022-10-23T12:12:41.052Z,5608.00
2022-10-23T12:13:40.996Z,5428.00
2022-10-23T12:14:40.977Z,5292.00
2022-10-23T12:15:40.980Z,5104.00
2022-10-23T12:16:40.968Z,4952.00
2022-10-23T12:17:41.139Z,4824.00
2022-10-23T12:18:40.938Z,4740.00
2022-10-23T12:19:40.928Z,4716.00
2022-10-23T12:20:40.931Z,4728.00
2022-10-23T12:21:40.922Z,4772.00
2022-10-23T12:22:40.914Z,4852.00
2022-10-23T12:23:43.229Z,4880.00
2022-10-23T12:24:40.875Z,4956.00
2022-10-23T12:25:40.874Z,4924.00
2022-10-23T12:26:40.865Z,4896.00
2022-10-23T12:27:41.096Z,4848.00
2022-10-23T12:28:40.914Z,4808.00
2022-10-23T12:29:40.816Z,4796.00
2022-10-23T12:30:40.803Z,4764.00
2022-10-23T12:31:44.229Z,4736.00
2022-10-23T12:32:42.079Z,4688.00
2022-10-23T12:33:40.791Z,4844.00
2022-10-23T12:34:40.760Z,4964.00
2022-10-23T12:35:40.749Z,5016.00
2022-10-23T12:36:40.735Z,5032.00
2022-10-23T12:37:40.742Z,5036.00
2022-10-23T12:38:40.724Z,5036.00
2022-10-23T12:39:40.736Z,5068.00
2022-10-23T12:40:40.717Z,5096.00